createdAt,value
2018-12-12T00:00:16.984Z,2.89
2018-12-12T00:01:17.079Z,2.91
2018-12-12T00:02:16.353Z,2.89
2018-12-12T00:03:16.624Z,2.88
2018-12-12T00:04:16.884Z,2.92
2018-12-12T00:05:17.159Z,2.93
2018-12-12T00:06:16.431Z,2.93
2018-12-12T00:07:16.711Z,2.88
2018-12-12T00:08:16.981Z,2.84
2018-12-12T00:09:16.250Z,2.86
2018-12-12T00:10:16.532Z,2.82
2018-12-12T00:11:16.577Z,2.88
2018-12-12T00:12:16.834Z,2.88
2018-12-12T00:13:17.091Z,2.88
2018-12-12T00:14:16.358Z,2.88
2018-12-12T00:15:16.633Z,2.88
2018-12-12T00:16:16.898Z,2.89
2018-12-12T00:17:17.172Z,2.88
2018-12-12T00:18:16.438Z,2.89
2018-12-12T00:19:16.701Z,2.86
2018-12-12T00:20:16.985Z,2.86
2018-12-12T00:21:17.038Z,2.88
2018-12-12T00:22:16.333Z,2.89
2018-12-12T00:23:16.591Z,2.88
2018-12-12T00:24:16.861Z,2.88
2018-12-12T00:25:17.132Z,2.86
2018-12-12T00:26:16.389Z,2.86
2018-12-12T00:27:16.656Z,2.91
2018-12-12T00:28:16.921Z,2.86
2018-12-12T00:29:17.194Z,2.89
2018-12-12T00:30:16.456Z,2.89
2018-12-12T00:31:16.662Z,2.96
2018-12-12T00:32:16.932Z,2.89
2018-12-12T00:33:17.177Z,2.85
2018-12-12T00:34:16.446Z,2.99
2018-12-12T00:35:16.716Z,2.86
2018-12-12T00:36:16.978Z,2.85
2018-12-12T00:37:16.239Z,2.88
2018-12-12T00:38:16.495Z,2.91
2018-12-12T00:39:16.765Z,2.89
2018-12-12T00:40:17.039Z,2.88
2018-12-12T00:41:17.110Z,2.88
2018-12-12T00:42:17.824Z,2.89
2018-12-12T00:43:17.182Z,2.89
2018-12-12T00:44:16.447Z,2.86
2018-12-12T00:45:16.703Z,2.85
2018-12-12T00:46:16.967Z,2.85
2018-12-12T00:47:16.228Z,2.85
2018-12-12T00:48:16.484Z,2.88
2018-12-12T00:49:16.755Z,2.85
2018-12-12T00:50:17.022Z,2.89
2018-12-12T00:51:17.066Z,2.88
2018-12-12T00:52:16.325Z,2.84
2018-12-12T00:53:16.594Z,2.89
2018-12-12T00:54:16.861Z,2.82
2018-12-12T00:55:17.167Z,2.82
2018-12-12T00:56:16.454Z,2.78
2018-12-12T00:57:16.716Z,2.84
2018-12-12T00:58:16.973Z,2.76
2018-12-12T00:59:16.238Z,2.81
2018-12-12T01:00:16.503Z,2.76
2018-12-12T01:01:16.576Z,2.74
2018-12-12T01:02:16.843Z,2.79
2018-12-12T01:03:17.115Z,2.76
2018-12-12T01:04:16.377Z,2.81
2018-12-12T01:05:16.643Z,2.81
2018-12-12T01:06:16.927Z,2.81
2018-12-12T01:07:17.190Z,2.82
2018-12-12T01:08:16.442Z,2.79
2018-12-12T01:09:16.706Z,2.79
2018-12-12T01:10:16.993Z,2.78
2018-12-12T01:11:17.025Z,2.84
2018-12-12T01:12:16.286Z,2.78
2018-12-12T01:13:16.550Z,2.81
2018-12-12T01:14:16.819Z,2.79
2018-12-12T01:15:17.084Z,2.74
2018-12-12T01:16:16.396Z,2.74
2018-12-12T01:17:16.725Z,2.72
2018-12-12T01:18:16.995Z,2.72
2018-12-12T01:19:16.263Z,2.74
2018-12-12T01:20:16.584Z,2.78
2018-12-12T01:21:16.609Z,2.72
2018-12-12T01:22:16.874Z,2.72
2018-12-12T01:23:17.142Z,2.79
2018-12-12T01:24:16.402Z,2.78
2018-12-12T01:25:16.671Z,2.79
2018-12-12T01:26:16.935Z,2.82
2018-12-12T01:27:17.203Z,2.81
2018-12-12T01:28:16.477Z,2.82
2018-12-12T01:29:16.731Z,2.76
2018-12-12T01:30:17.006Z,2.81
2018-12-12T01:31:17.048Z,2.78
2018-12-12T01:32:16.311Z,2.78
2018-12-12T01:33:16.577Z,2.71
2018-12-12T01:34:16.839Z,2.72
2018-12-12T01:35:17.102Z,2.82
2018-12-12T01:36:16.358Z,2.84
2018-12-12T01:37:16.630Z,2.89
2018-12-12T01:38:16.893Z,2.78
2018-12-12T01:39:17.154Z,2.78
2018-12-12T01:40:16.428Z,2.81
2018-12-12T01:41:16.479Z,2.81
2018-12-12T01:42:16.743Z,2.78
2018-12-12T01:43:17.017Z,2.79
2018-12-12T01:44:16.533Z,2.76
2018-12-12T01:45:16.802Z,2.78
2018-12-12T01:46:17.066Z,2.71
2018-12-12T01:47:16.338Z,2.69
2018-12-12T01:48:16.598Z,2.68
2018-12-12T01:49:16.872Z,2.68
2018-12-12T01:50:17.158Z,2.69
2018-12-12T01:51:16.226Z,2.69
2018-12-12T01:52:16.499Z,2.75
2018-12-12T01:53:16.760Z,2.69
2018-12-12T01:54:17.026Z,2.72
2018-12-12T01:55:16.284Z,2.79
2018-12-12T01:56:16.556Z,2.81
2018-12-12T01:57:16.814Z,2.79
2018-12-12T01:58:17.238Z,2.76
2018-12-12T01:59:16.520Z,2.75
2018-12-12T02:00:16.791Z,2.71
2018-12-12T02:01:16.832Z,2.65
2018-12-12T02:02:17.092Z,2.78
2018-12-12T02:03:16.357Z,2.72
2018-12-12T02:04:16.631Z,2.71
2018-12-12T02:05:16.906Z,2.69
2018-12-12T02:06:17.170Z,2.72
2018-12-12T02:07:16.434Z,2.75
2018-12-12T02:08:16.703Z,2.71
2018-12-12T02:09:16.961Z,2.75
2018-12-12T02:10:16.225Z,2.78
2018-12-12T02:11:16.292Z,2.79
2018-12-12T02:12:16.551Z,2.78
2018-12-12T02:13:16.837Z,2.74
2018-12-12T02:14:17.124Z,2.78
2018-12-12T02:15:16.385Z,2.71
2018-12-12T02:16:16.651Z,2.72
2018-12-12T02:17:16.918Z,2.71
2018-12-12T02:18:17.181Z,2.71
2018-12-12T02:19:16.449Z,2.84
2018-12-12T02:20:16.725Z,2.84
2018-12-12T02:21:16.777Z,2.76
2018-12-12T02:22:17.052Z,2.79
2018-12-12T02:23:16.303Z,2.76
2018-12-12T02:24:16.572Z,2.74
2018-12-12T02:25:16.837Z,2.74
2018-12-12T02:26:17.123Z,2.76
2018-12-12T02:27:16.383Z,2.81
2018-12-12T02:28:16.654Z,2.72
2018-12-12T02:29:16.914Z,2.75
2018-12-12T02:30:17.189Z,2.74
2018-12-12T02:31:16.271Z,2.74
2018-12-12T02:32:16.530Z,2.75
2018-12-12T02:33:16.801Z,2.72
2018-12-12T02:34:17.072Z,2.74
2018-12-12T02:35:16.353Z,2.68
2018-12-12T02:36:16.626Z,2.68
2018-12-12T02:37:16.887Z,2.72
2018-12-12T02:38:17.160Z,2.72
2018-12-12T02:39:16.429Z,2.71
2018-12-12T02:40:16.712Z,2.74
2018-12-12T02:41:16.761Z,2.81
2018-12-12T02:42:17.035Z,2.81
2018-12-12T02:43:16.285Z,2.69
2018-12-12T02:44:16.548Z,2.69
2018-12-12T02:45:16.818Z,2.65
2018-12-12T02:46:17.097Z,2.67
2018-12-12T02:47:16.370Z,2.71
2018-12-12T02:48:16.637Z,2.71
2018-12-12T02:49:16.889Z,2.72
2018-12-12T02:50:17.156Z,2.75
2018-12-12T02:51:16.251Z,2.71
2018-12-12T02:52:16.528Z,2.75
2018-12-12T02:53:16.795Z,2.84
2018-12-12T02:54:17.093Z,2.84
2018-12-12T02:55:16.353Z,2.78
2018-12-12T02:56:16.610Z,2.78
2018-12-12T02:57:16.867Z,2.74
2018-12-12T02:58:17.129Z,2.81
2018-12-12T02:59:16.385Z,2.78
2018-12-12T03:00:16.659Z,2.79
2018-12-12T03:01:16.743Z,2.74
2018-12-12T03:02:17.005Z,2.81
2018-12-12T03:03:16.282Z,2.74
2018-12-12T03:04:16.553Z,2.68
2018-12-12T03:05:16.828Z,2.68
2018-12-12T03:06:17.103Z,2.72
2018-12-12T03:07:16.386Z,2.69
2018-12-12T03:08:16.644Z,2.76
2018-12-12T03:09:16.907Z,2.69
2018-12-12T03:10:17.205Z,2.65
2018-12-12T03:11:16.250Z,2.65
2018-12-12T03:12:16.526Z,2.65
2018-12-12T03:13:16.791Z,2.67
2018-12-12T03:14:17.053Z,2.71
2018-12-12T03:15:16.312Z,2.78
2018-12-12T03:16:16.569Z,2.78
2018-12-12T03:17:16.839Z,2.78
2018-12-12T03:18:17.117Z,2.74
2018-12-12T03:19:16.381Z,2.71
2018-12-12T03:20:15.276Z,2.67
2018-12-12T03:21:16.347Z,2.71
2018-12-12T03:22:16.617Z,2.74
2018-12-12T03:23:16.913Z,2.76
2018-12-12T03:24:17.186Z,2.72
2018-12-12T03:25:16.453Z,2.79
2018-12-12T03:26:16.715Z,2.76
2018-12-12T03:27:16.991Z,2.78
2018-12-12T03:28:16.254Z,2.72
2018-12-12T03:29:16.527Z,2.78
2018-12-12T03:30:16.823Z,2.75
2018-12-12T03:31:16.862Z,2.76
2018-12-12T03:32:17.454Z,2.75
2018-12-12T03:33:16.757Z,2.81
2018-12-12T03:34:17.038Z,2.76
2018-12-12T03:35:16.282Z,2.69
2018-12-12T03:36:16.544Z,2.69
2018-12-12T03:37:16.804Z,2.71
2018-12-12T03:38:17.069Z,2.71
2018-12-12T03:39:16.335Z,2.71
2018-12-12T03:40:16.607Z,2.69
2018-12-12T03:41:16.646Z,2.63
2018-12-12T03:42:16.918Z,2.61
2018-12-12T03:43:17.193Z,2.61
2018-12-12T03:44:16.463Z,2.60
2018-12-12T03:45:16.749Z,2.61
2018-12-12T03:46:17.005Z,2.61
2018-12-12T03:47:16.264Z,2.64
2018-12-12T03:48:16.526Z,2.61
2018-12-12T03:49:16.788Z,2.63
2018-12-12T03:50:17.072Z,2.58
2018-12-12T03:51:17.132Z,2.58
2018-12-12T03:52:16.402Z,2.55
2018-12-12T03:53:16.663Z,2.57
2018-12-12T03:54:16.930Z,2.55
2018-12-12T03:55:17.198Z,2.55
2018-12-12T03:56:16.473Z,2.50
2018-12-12T03:57:16.739Z,2.48
2018-12-12T03:58:16.996Z,2.45
2018-12-12T03:59:16.273Z,2.44
2018-12-12T04:00:16.552Z,2.45
2018-12-12T04:01:16.632Z,2.47
2018-12-12T04:02:16.893Z,2.48
2018-12-12T04:03:17.158Z,2.54
2018-12-12T04:04:16.443Z,2.54
2018-12-12T04:05:16.708Z,2.54
2018-12-12T04:06:16.984Z,2.51
2018-12-12T04:07:16.255Z,2.53
2018-12-12T04:08:16.519Z,2.53
2018-12-12T04:09:16.777Z,2.57
2018-12-12T04:10:17.041Z,2.61
2018-12-12T04:11:17.110Z,2.64
2018-12-12T04:12:16.383Z,2.58
2018-12-12T04:13:16.662Z,2.60
2018-12-12T04:14:16.946Z,2.55
2018-12-12T04:15:16.210Z,2.58
2018-12-12T04:16:16.506Z,2.63
2018-12-12T04:17:16.773Z,2.61
2018-12-12T04:18:17.040Z,2.58
2018-12-12T04:19:16.318Z,2.65
2018-12-12T04:20:16.581Z,2.61
2018-12-12T04:21:16.651Z,2.61
2018-12-12T04:22:16.914Z,2.63
2018-12-12T04:23:17.188Z,2.61
2018-12-12T04:24:16.463Z,2.65
2018-12-12T04:25:16.733Z,2.64
2018-12-12T04:26:16.998Z,2.64
2018-12-12T04:27:16.281Z,2.75
2018-12-12T04:28:16.549Z,2.61
2018-12-12T04:29:16.813Z,2.61
2018-12-12T04:30:17.090Z,2.58
2018-12-12T04:31:17.147Z,2.65
2018-12-12T04:32:16.414Z,2.65
2018-12-12T04:33:16.677Z,2.60
2018-12-12T04:34:16.958Z,2.64
2018-12-12T04:35:16.218Z,2.61
2018-12-12T04:36:16.480Z,2.61
2018-12-12T04:37:16.750Z,2.60
2018-12-12T04:38:17.265Z,2.54
2018-12-12T04:39:16.536Z,2.54
2018-12-12T04:40:16.802Z,2.65
2018-12-12T04:41:16.860Z,2.63
2018-12-12T04:42:16.223Z,2.63
2018-12-12T04:43:16.502Z,2.58
2018-12-12T04:44:16.766Z,2.64
2018-12-12T04:45:17.047Z,2.67
2018-12-12T04:46:16.314Z,2.65
2018-12-12T04:47:16.645Z,2.64
2018-12-12T04:48:16.909Z,2.61
2018-12-12T04:49:16.293Z,2.63
2018-12-12T04:50:16.574Z,2.57
2018-12-12T04:51:16.611Z,2.54
2018-12-12T04:52:16.934Z,2.54
2018-12-12T04:53:18.057Z,2.61
2018-12-12T04:54:16.322Z,2.58
2018-12-12T04:55:16.585Z,2.65
2018-12-12T04:56:16.850Z,2.65
2018-12-12T04:57:17.120Z,2.63
2018-12-12T04:58:16.379Z,2.64
2018-12-12T04:59:16.636Z,2.64
2018-12-12T05:00:16.924Z,2.64
2018-12-12T05:01:16.977Z,2.51
2018-12-12T05:02:16.235Z,2.61
2018-12-12T05:03:16.505Z,2.58
2018-12-12T05:04:16.766Z,2.54
2018-12-12T05:05:17.036Z,2.58
2018-12-12T05:06:16.299Z,2.58
2018-12-12T05:07:16.566Z,2.57
2018-12-12T05:08:16.826Z,2.60
2018-12-12T05:09:17.408Z,2.58
2018-12-12T05:10:16.682Z,2.53
2018-12-12T05:11:16.719Z,2.55
2018-12-12T05:12:16.987Z,2.58
2018-12-12T05:13:16.263Z,2.58
2018-12-12T05:14:16.533Z,2.55
2018-12-12T05:15:16.807Z,2.53
2018-12-12T05:16:17.061Z,2.60
2018-12-12T05:17:16.331Z,2.64
2018-12-12T05:18:16.600Z,2.54
2018-12-12T05:19:16.868Z,2.58
2018-12-12T05:20:17.398Z,2.58
2018-12-12T05:21:16.215Z,2.50
2018-12-12T05:22:16.481Z,2.45
2018-12-12T05:23:16.742Z,2.48
2018-12-12T05:24:17.006Z,2.50
2018-12-12T05:25:16.293Z,2.57
2018-12-12T05:26:16.872Z,2.57
2018-12-12T05:27:17.126Z,2.55
2018-12-12T05:28:16.389Z,2.64
2018-12-12T05:29:16.686Z,2.58
2018-12-12T05:30:16.952Z,2.64
2018-12-12T05:31:17.011Z,2.65
2018-12-12T05:32:16.286Z,2.60
2018-12-12T05:33:16.556Z,2.60
2018-12-12T05:34:16.814Z,2.60
2018-12-12T05:35:17.085Z,2.55
2018-12-12T05:36:16.342Z,2.57
2018-12-12T05:37:16.610Z,2.57
2018-12-12T05:38:16.874Z,2.51
2018-12-12T05:39:17.170Z,2.50
2018-12-12T05:40:16.445Z,2.57
2018-12-12T05:41:16.502Z,2.57
2018-12-12T05:42:16.765Z,2.50
2018-12-12T05:43:17.025Z,2.53
2018-12-12T05:44:16.295Z,2.51
2018-12-12T05:45:16.562Z,2.51
2018-12-12T05:46:16.830Z,2.57
2018-12-12T05:47:17.087Z,2.61
2018-12-12T05:48:16.355Z,2.60
2018-12-12T05:49:16.621Z,2.55
2018-12-12T05:50:16.889Z,2.50
2018-12-12T05:51:16.953Z,2.50
2018-12-12T05:52:16.228Z,2.51
2018-12-12T05:53:16.511Z,2.54
2018-12-12T05:54:16.789Z,2.58
2018-12-12T05:55:17.433Z,2.55
2018-12-12T05:56:16.690Z,2.55
2018-12-12T05:57:16.957Z,2.55
2018-12-12T05:58:16.221Z,2.55
2018-12-12T05:59:16.490Z,2.55
2018-12-12T06:00:16.778Z,2.53
2018-12-12T06:01:16.815Z,2.51
2018-12-12T06:02:17.076Z,2.63
2018-12-12T06:03:16.340Z,2.53
2018-12-12T06:04:16.618Z,2.55
2018-12-12T06:05:16.907Z,2.60
2018-12-12T06:06:17.177Z,2.54
2018-12-12T06:07:16.437Z,2.53
2018-12-12T06:08:16.704Z,2.63
2018-12-12T06:09:16.965Z,2.58
2018-12-12T06:10:16.236Z,2.55
2018-12-12T06:11:16.306Z,2.57
2018-12-12T06:12:16.567Z,2.51
2018-12-12T06:13:16.829Z,2.53
2018-12-12T06:14:17.100Z,2.58
2018-12-12T06:15:16.382Z,2.58
2018-12-12T06:16:16.646Z,2.53
2018-12-12T06:17:16.912Z,2.58
2018-12-12T06:18:17.178Z,2.64
2018-12-12T06:19:16.440Z,2.57
2018-12-12T06:20:16.728Z,2.54
2018-12-12T06:21:16.768Z,2.51
2018-12-12T06:22:17.037Z,2.54
2018-12-12T06:23:16.301Z,2.53
2018-12-12T06:24:16.579Z,2.48
2018-12-12T06:25:16.838Z,2.53
2018-12-12T06:26:17.116Z,2.48
2018-12-12T06:27:16.383Z,2.47
2018-12-12T06:28:16.650Z,2.47
2018-12-12T06:29:16.913Z,2.48
2018-12-12T06:30:17.463Z,2.47
2018-12-12T06:31:16.258Z,2.51
2018-12-12T06:32:16.524Z,2.50
2018-12-12T06:33:16.788Z,2.55
2018-12-12T06:34:17.067Z,2.53
2018-12-12T06:35:16.352Z,2.51
2018-12-12T06:36:16.626Z,2.48
2018-12-12T06:37:16.900Z,2.47
2018-12-12T06:38:17.168Z,2.45
2018-12-12T06:39:16.431Z,2.41
2018-12-12T06:40:16.708Z,2.38
2018-12-12T06:41:16.762Z,2.43
2018-12-12T06:42:17.031Z,2.41
2018-12-12T06:43:16.294Z,2.38
2018-12-12T06:44:16.558Z,2.41
2018-12-12T06:45:16.839Z,2.45
2018-12-12T06:46:17.112Z,2.50
2018-12-12T06:47:16.367Z,2.48
2018-12-12T06:48:16.633Z,2.47
2018-12-12T06:49:16.906Z,2.45
2018-12-12T06:50:17.222Z,2.53
2018-12-12T06:51:16.229Z,2.51
2018-12-12T06:52:16.495Z,2.51
2018-12-12T06:53:16.755Z,2.53
2018-12-12T06:54:17.020Z,2.48
2018-12-12T06:55:16.282Z,2.51
2018-12-12T06:56:16.544Z,2.44
2018-12-12T06:57:16.811Z,2.47
2018-12-12T06:58:17.069Z,2.51
2018-12-12T06:59:16.328Z,2.55
2018-12-12T07:00:16.604Z,2.50
2018-12-12T07:01:16.666Z,2.57
2018-12-12T07:02:16.931Z,2.57
2018-12-12T07:03:17.203Z,2.53
2018-12-12T07:04:16.474Z,2.45
2018-12-12T07:05:16.747Z,2.47
2018-12-12T07:06:17.016Z,2.43
2018-12-12T07:07:16.283Z,2.40
2018-12-12T07:08:16.547Z,2.43
2018-12-12T07:09:16.809Z,2.40
2018-12-12T07:10:17.091Z,2.51
2018-12-12T07:11:17.135Z,2.48
2018-12-12T07:12:16.405Z,2.43
2018-12-12T07:13:16.667Z,2.37
2018-12-12T07:14:16.944Z,2.40
2018-12-12T07:15:16.248Z,2.43
2018-12-12T07:16:16.522Z,2.45
2018-12-12T07:17:16.793Z,2.44
2018-12-12T07:18:17.056Z,2.38
2018-12-12T07:19:16.316Z,2.34
2018-12-12T07:20:16.579Z,2.34
2018-12-12T07:21:16.652Z,2.44
2018-12-12T07:22:16.918Z,2.37
2018-12-12T07:23:17.191Z,2.41
2018-12-12T07:24:16.462Z,2.38
2018-12-12T07:25:16.734Z,2.34
2018-12-12T07:26:17.009Z,2.40
2018-12-12T07:27:16.266Z,2.34
2018-12-12T07:28:16.532Z,2.33
2018-12-12T07:29:16.801Z,2.32
2018-12-12T07:30:17.090Z,2.30
2018-12-12T07:31:17.140Z,2.30
2018-12-12T07:32:16.426Z,2.33
2018-12-12T07:33:16.708Z,2.33
2018-12-12T07:34:16.980Z,2.34
2018-12-12T07:35:16.236Z,2.37
2018-12-12T07:36:16.506Z,2.33
2018-12-12T07:37:16.774Z,2.36
2018-12-12T07:38:17.039Z,2.33
2018-12-12T07:39:18.003Z,2.34
2018-12-12T07:40:16.426Z,2.33
2018-12-12T07:41:16.488Z,2.32
2018-12-12T07:42:16.757Z,2.30
2018-12-12T07:43:17.030Z,2.29
2018-12-12T07:44:16.302Z,2.32
2018-12-12T07:45:16.673Z,2.30
2018-12-12T07:46:17.027Z,2.29
2018-12-12T07:47:16.285Z,2.33
2018-12-12T07:48:16.557Z,2.30
2018-12-12T07:49:16.847Z,2.33
2018-12-12T07:50:17.121Z,2.29
2018-12-12T07:51:17.180Z,2.30
2018-12-12T07:52:16.448Z,2.30
2018-12-12T07:53:16.718Z,2.27
2018-12-12T07:54:17.248Z,2.24
2018-12-12T07:55:16.512Z,2.29
2018-12-12T07:56:16.767Z,2.30
2018-12-12T07:57:17.061Z,2.23
2018-12-12T07:58:16.322Z,2.23
2018-12-12T07:59:16.604Z,2.19
2018-12-12T08:00:16.880Z,2.24
2018-12-12T08:01:16.943Z,2.21
2018-12-12T08:02:16.211Z,2.17
2018-12-12T08:03:16.479Z,2.19
2018-12-12T08:04:16.748Z,2.20
2018-12-12T08:05:17.014Z,2.17
2018-12-12T08:06:16.282Z,2.21
2018-12-12T08:07:16.611Z,2.24
2018-12-12T08:08:16.877Z,2.20
2018-12-12T08:09:17.138Z,2.17
2018-12-12T08:10:16.424Z,2.19
2018-12-12T08:11:16.478Z,2.19
2018-12-12T08:12:16.743Z,2.23
2018-12-12T08:13:17.001Z,2.16
2018-12-12T08:14:16.260Z,2.14
2018-12-12T08:15:16.518Z,2.12
2018-12-12T08:16:16.782Z,2.13
2018-12-12T08:17:17.079Z,2.19
2018-12-12T08:18:16.356Z,2.14
2018-12-12T08:19:16.610Z,2.09
2018-12-12T08:20:16.880Z,2.13
2018-12-12T08:21:16.954Z,2.12
2018-12-12T08:22:16.225Z,2.10
2018-12-12T08:23:16.493Z,2.16
2018-12-12T08:24:16.753Z,2.19
2018-12-12T08:25:17.034Z,2.16
2018-12-12T08:26:16.316Z,2.21
2018-12-12T08:27:16.582Z,2.20
2018-12-12T08:28:16.841Z,2.20
2018-12-12T08:29:17.111Z,2.21
2018-12-12T08:30:16.412Z,2.19
2018-12-12T08:31:16.447Z,2.19
2018-12-12T08:32:16.714Z,2.13
2018-12-12T08:33:16.979Z,2.17
2018-12-12T08:34:16.248Z,2.14
2018-12-12T08:35:16.520Z,2.10
2018-12-12T08:36:16.793Z,2.13
2018-12-12T08:37:17.063Z,2.12
2018-12-12T08:38:16.331Z,2.12
2018-12-12T08:39:16.606Z,2.10
2018-12-12T08:40:16.888Z,2.17
2018-12-12T08:41:16.949Z,2.07
2018-12-12T08:42:16.214Z,2.09
2018-12-12T08:43:16.547Z,2.06
2018-12-12T08:44:16.818Z,2.10
2018-12-12T08:45:17.100Z,2.13
2018-12-12T08:46:16.367Z,2.07
2018-12-12T08:47:16.632Z,2.12
2018-12-12T08:48:16.910Z,2.03
2018-12-12T08:49:17.175Z,2.02
2018-12-12T08:50:16.435Z,2.05
2018-12-12T08:51:16.503Z,2.09
2018-12-12T08:52:16.773Z,2.10
2018-12-12T08:53:17.044Z,2.17
2018-12-12T08:54:16.308Z,2.14
2018-12-12T08:55:17.739Z,2.17
2018-12-12T08:56:16.280Z,2.16
2018-12-12T08:57:16.567Z,2.13
2018-12-12T08:58:16.834Z,2.10
2018-12-12T08:59:17.112Z,2.09
2018-12-12T09:00:16.398Z,2.09
2018-12-12T09:01:16.466Z,2.12
2018-12-12T09:02:16.737Z,2.14
2018-12-12T09:03:17.639Z,2.20
2018-12-12T09:04:17.178Z,2.20
2018-12-12T09:05:16.437Z,2.14
2018-12-12T09:06:16.701Z,2.20
2018-12-12T09:07:16.979Z,2.20
2018-12-12T09:08:16.249Z,2.20
2018-12-12T09:09:16.510Z,2.17
2018-12-12T09:10:16.787Z,2.19
2018-12-12T09:11:16.831Z,2.20
2018-12-12T09:12:17.124Z,2.20
2018-12-12T09:13:16.389Z,2.16
2018-12-12T09:14:16.652Z,2.19
2018-12-12T09:15:16.921Z,2.14
2018-12-12T09:16:17.193Z,2.14
2018-12-12T09:17:16.465Z,2.12
2018-12-12T09:18:16.737Z,2.26
2018-12-12T09:19:17.023Z,2.26
2018-12-12T09:20:16.317Z,2.27
2018-12-12T09:21:16.359Z,2.23
2018-12-12T09:22:16.635Z,2.20
2018-12-12T09:23:16.925Z,2.14
2018-12-12T09:24:17.191Z,2.19
2018-12-12T09:25:16.464Z,2.20
2018-12-12T09:26:16.727Z,2.24
2018-12-12T09:27:16.996Z,2.29
2018-12-12T09:28:16.251Z,2.29
2018-12-12T09:29:16.511Z,2.27
2018-12-12T09:30:16.812Z,2.34
2018-12-12T09:31:16.872Z,2.34
2018-12-12T09:32:17.147Z,2.37
2018-12-12T09:33:16.412Z,2.47
2018-12-12T09:34:16.670Z,2.43
2018-12-12T09:35:16.943Z,2.33
2018-12-12T09:36:16.204Z,2.34
2018-12-12T09:37:16.483Z,2.32
2018-12-12T09:38:16.748Z,2.34
2018-12-12T09:39:17.023Z,2.33
2018-12-12T09:40:16.305Z,2.44
2018-12-12T09:41:16.355Z,2.44
2018-12-12T09:42:16.625Z,2.40
2018-12-12T09:43:16.888Z,2.36
2018-12-12T09:44:17.156Z,2.53
2018-12-12T09:45:21.615Z,2.53
2018-12-12T09:46:17.170Z,2.54
2018-12-12T09:47:16.434Z,2.53
2018-12-12T09:48:19.389Z,2.53
2018-12-12T09:49:16.522Z,2.55
2018-12-12T09:50:16.787Z,2.65
2018-12-12T09:51:16.853Z,2.54
2018-12-12T09:52:17.124Z,2.48
2018-12-12T09:53:16.396Z,2.60
2018-12-12T09:54:16.655Z,2.53
2018-12-12T09:55:16.923Z,2.57
2018-12-12T09:56:17.188Z,2.60
2018-12-12T09:57:16.448Z,2.65
2018-12-12T09:58:16.713Z,2.67
2018-12-12T09:59:16.979Z,2.71
2018-12-12T10:00:16.284Z,2.60
2018-12-12T10:01:16.318Z,2.64
2018-12-12T10:02:16.583Z,2.67
2018-12-12T10:03:16.848Z,2.67
2018-12-12T10:04:17.116Z,2.65
2018-12-12T10:05:16.377Z,2.65
2018-12-12T10:06:16.643Z,2.57
2018-12-12T10:07:16.902Z,2.61
2018-12-12T10:08:17.160Z,2.67
2018-12-12T10:09:16.442Z,2.60
2018-12-12T10:10:16.745Z,2.64
2018-12-12T10:11:16.799Z,2.72
2018-12-12T10:12:17.066Z,2.68
2018-12-12T10:13:16.337Z,2.71
2018-12-12T10:14:16.593Z,2.76
2018-12-12T10:15:16.862Z,2.71
2018-12-12T10:16:17.126Z,2.74
2018-12-12T10:17:16.388Z,2.75
2018-12-12T10:18:16.656Z,2.68
2018-12-12T10:19:16.930Z,2.71
2018-12-12T10:20:17.229Z,2.68
2018-12-12T10:21:16.282Z,2.75
2018-12-12T10:22:16.549Z,2.81
2018-12-12T10:23:16.821Z,2.91
2018-12-12T10:24:17.086Z,2.89
2018-12-12T10:25:16.351Z,2.81
2018-12-12T10:26:16.621Z,2.84
2018-12-12T10:27:16.882Z,2.93
2018-12-12T10:28:17.150Z,2.92
2018-12-12T10:29:16.413Z,2.92
2018-12-12T10:30:16.690Z,2.95
2018-12-12T10:31:16.746Z,2.95
2018-12-12T10:32:17.038Z,3.07
2018-12-12T10:33:16.381Z,2.99
2018-12-12T10:34:16.701Z,3.00
2018-12-12T10:35:16.978Z,2.91
2018-12-12T10:36:16.246Z,2.98
2018-12-12T10:37:16.509Z,2.91
2018-12-12T10:38:16.771Z,2.95
2018-12-12T10:39:17.036Z,2.96
2018-12-12T10:40:16.300Z,2.93
2018-12-12T10:41:16.371Z,2.95
2018-12-12T10:42:16.634Z,2.86
2018-12-12T10:43:16.909Z,2.91
2018-12-12T10:44:17.169Z,2.95
2018-12-12T10:45:16.435Z,3.00
2018-12-12T10:46:16.703Z,2.86
2018-12-12T10:47:16.963Z,2.82
2018-12-12T10:48:16.230Z,2.82
2018-12-12T10:49:16.500Z,2.82
2018-12-12T10:50:16.778Z,2.86
2018-12-12T10:51:16.815Z,2.78
2018-12-12T10:52:17.079Z,2.75
2018-12-12T10:53:16.339Z,2.74
2018-12-12T10:54:16.602Z,2.72
2018-12-12T10:55:16.864Z,2.75
2018-12-12T10:56:17.126Z,2.72
2018-12-12T10:57:16.392Z,2.79
2018-12-12T10:58:16.665Z,2.74
2018-12-12T10:59:16.924Z,2.75
2018-12-12T11:00:17.228Z,2.71
2018-12-12T11:01:16.285Z,2.65
2018-12-12T11:02:16.546Z,2.67
2018-12-12T11:03:16.811Z,2.67
2018-12-12T11:04:17.082Z,2.58
2018-12-12T11:05:16.356Z,2.58
2018-12-12T11:06:16.638Z,2.57
2018-12-12T11:07:16.906Z,2.54
2018-12-12T11:08:17.170Z,2.55
2018-12-12T11:09:16.432Z,2.54
2018-12-12T11:10:16.711Z,2.53
2018-12-12T11:11:16.747Z,2.55
2018-12-12T11:12:17.021Z,2.50
2018-12-12T11:13:16.278Z,2.50
2018-12-12T11:14:16.556Z,2.47
2018-12-12T11:15:16.836Z,2.48
2018-12-12T11:16:17.379Z,2.47
2018-12-12T11:17:16.644Z,2.48
2018-12-12T11:18:16.910Z,2.41
2018-12-12T11:19:17.167Z,2.43
2018-12-12T11:20:16.442Z,2.44
2018-12-12T11:21:16.504Z,2.40
2018-12-12T11:22:16.761Z,2.40
2018-12-12T11:23:17.015Z,2.45
2018-12-12T11:24:16.273Z,2.45
2018-12-12T11:25:16.542Z,2.47
2018-12-12T11:26:16.809Z,2.50
2018-12-12T11:27:17.072Z,2.51
2018-12-12T11:28:16.340Z,2.54
2018-12-12T11:29:16.606Z,2.57
2018-12-12T11:30:16.897Z,2.60
2018-12-12T11:31:16.949Z,2.61
2018-12-12T11:32:16.207Z,2.64
2018-12-12T11:33:16.473Z,2.72
2018-12-12T11:34:16.741Z,2.91
2018-12-12T11:35:17.004Z,2.96
2018-12-12T11:36:16.275Z,3.06
2018-12-12T11:37:16.557Z,3.16
2018-12-12T11:38:16.822Z,3.17
2018-12-12T11:39:17.078Z,3.17
2018-12-12T11:40:16.368Z,3.03
2018-12-12T11:41:16.416Z,3.06
2018-12-12T11:42:16.668Z,3.07
2018-12-12T11:43:16.945Z,3.10
2018-12-12T11:44:16.213Z,3.14
2018-12-12T11:45:16.502Z,3.24
2018-12-12T11:46:16.843Z,3.14
2018-12-12T11:47:17.129Z,3.19
2018-12-12T11:48:16.389Z,3.22
2018-12-12T11:49:16.657Z,3.22
2018-12-12T11:50:16.928Z,3.20
2018-12-12T11:51:16.990Z,3.14
2018-12-12T11:52:16.261Z,3.10
2018-12-12T11:53:16.541Z,3.10
2018-12-12T11:54:16.811Z,3.04
2018-12-12T11:55:17.080Z,3.06
2018-12-12T11:56:16.354Z,3.07
2018-12-12T11:57:16.723Z,3.03
2018-12-12T11:58:16.989Z,3.03
2018-12-12T11:59:16.249Z,3.03
2018-12-12T12:00:16.533Z,2.99
2018-12-12T12:01:16.601Z,2.96
2018-12-12T12:02:16.870Z,2.98
2018-12-12T12:03:17.136Z,3.00
2018-12-12T12:04:16.395Z,2.98
2018-12-12T12:05:16.665Z,3.00
2018-12-12T12:06:16.930Z,3.06
2018-12-12T12:07:18.371Z,3.10
2018-12-12T12:08:16.721Z,3.10
2018-12-12T12:09:16.980Z,3.27
2018-12-12T12:10:16.246Z,3.33
2018-12-12T12:11:16.295Z,3.46
2018-12-12T12:12:16.554Z,3.55
2018-12-12T12:13:16.819Z,3.62
2018-12-12T12:14:17.088Z,3.60
2018-12-12T12:15:16.350Z,3.46
2018-12-12T12:16:16.609Z,3.41
2018-12-12T12:17:16.872Z,3.50
2018-12-12T12:18:17.146Z,3.51
2018-12-12T12:19:16.404Z,3.49
2018-12-12T12:20:16.679Z,3.50
2018-12-12T12:21:16.735Z,3.47
2018-12-12T12:22:17.001Z,3.47
2018-12-12T12:23:16.260Z,3.51
2018-12-12T12:24:16.535Z,3.57
2018-12-12T12:25:16.796Z,3.65
2018-12-12T12:26:17.066Z,3.68
2018-12-12T12:27:16.330Z,3.68
2018-12-12T12:28:16.602Z,3.71
2018-12-12T12:29:16.839Z,3.69
2018-12-12T12:30:17.110Z,3.69
2018-12-12T12:31:17.159Z,3.62
2018-12-12T12:32:16.423Z,3.68
2018-12-12T12:33:16.686Z,3.75
2018-12-12T12:34:16.954Z,3.79
2018-12-12T12:35:16.223Z,3.79
2018-12-12T12:36:16.487Z,3.86
2018-12-12T12:37:16.746Z,3.82
2018-12-12T12:38:17.014Z,3.74
2018-12-12T12:39:16.271Z,3.71
2018-12-12T12:40:16.547Z,3.68
2018-12-12T12:41:16.599Z,3.72
2018-12-12T12:42:16.877Z,3.77
2018-12-12T12:43:17.138Z,3.81
2018-12-12T12:44:16.492Z,3.77
2018-12-12T12:45:16.768Z,3.90
2018-12-12T12:46:17.035Z,3.88
2018-12-12T12:47:16.291Z,3.95
2018-12-12T12:48:16.562Z,4.05
2018-12-12T12:49:16.835Z,4.05
2018-12-12T12:50:17.107Z,4.06
2018-12-12T12:51:17.433Z,3.99
2018-12-12T12:52:16.710Z,3.98
2018-12-12T12:53:16.982Z,3.89
2018-12-12T12:54:16.242Z,3.90
2018-12-12T12:55:16.533Z,3.85
2018-12-12T12:56:16.815Z,3.86
2018-12-12T12:57:17.085Z,3.90
2018-12-12T12:58:16.347Z,3.92
2018-12-12T12:59:16.618Z,3.78
2018-12-12T13:00:16.895Z,3.83
2018-12-12T13:01:16.963Z,3.75
2018-12-12T13:02:16.220Z,3.78
2018-12-12T13:03:16.480Z,3.75
2018-12-12T13:04:16.740Z,3.69
2018-12-12T13:05:17.007Z,3.79
2018-12-12T13:06:16.278Z,3.71
2018-12-12T13:07:16.535Z,3.64
2018-12-12T13:08:16.799Z,3.64
2018-12-12T13:09:17.074Z,3.68
2018-12-12T13:10:16.346Z,3.68
2018-12-12T13:11:16.394Z,3.71
2018-12-12T13:12:16.696Z,3.72
2018-12-12T13:13:17.165Z,3.61
2018-12-12T13:14:16.681Z,3.64
2018-12-12T13:15:16.959Z,3.68
2018-12-12T13:16:16.229Z,3.69
2018-12-12T13:17:16.505Z,3.68
2018-12-12T13:18:16.764Z,3.69